sensor_id;sensor_type;location;lat;lon;timestamp;P1;durP1;ratioP1;P2;durP2;ratioP2
13672;SDS011;6909;52.202;9.876;2022-08-24T00:00:04;1.30;;;1.20;;
13672;SDS011;6909;52.202;9.876;2022-08-24T00:02:32;2.15;;;1.20;;
13672;SDS011;6909;52.202;9.876;2022-08-24T00:04:59;3.05;;;1.30;;
13672;SDS011;6909;52.202;9.876;2022-08-24T00:07:26;1.98;;;1.30;;
13672;SDS011;6909;52.202;9.876;2022-08-24T00:09:53;2.55;;;1.20;;
13672;SDS011;6909;52.202;9.876;2022-08-24T00:12:20;2.20;;;1.08;;
13672;SDS011;6909;52.202;9.876;2022-08-24T00:14:48;1.90;;;1.13;;
13672;SDS011;6909;52.202;9.876;2022-08-24T00:17:15;1.35;;;1.10;;
13672;SDS011;6909;52.202;9.876;2022-08-24T00:19:42;4.25;;;1.65;;
13672;SDS011;6909;52.202;9.876;2022-08-24T00:22:09;2.73;;;1.20;;
13672;SDS011;6909;52.202;9.876;2022-08-24T00:24:35;3.60;;;1.60;;
13672;SDS011;6909;52.202;9.876;2022-08-24T00:27:02;1.50;;;1.40;;
13672;SDS011;6909;52.202;9.876;2022-08-24T00:29:30;5.38;;;1.63;;
13672;SDS011;6909;52.202;9.876;2022-08-24T00:31:58;3.90;;;1.42;;
13672;SDS011;6909;52.202;9.876;2022-08-24T00:34:25;4.55;;;1.52;;
13672;SDS011;6909;52.202;9.876;2022-08-24T00:36:52;4.13;;;1.75;;
13672;SDS011;6909;52.202;9.876;2022-08-24T00:39:20;4.88;;;1.70;;
13672;SDS011;6909;52.202;9.876;2022-08-24T00:41:47;2.00;;;1.60;;
13672;SDS011;6909;52.202;9.876;2022-08-24T00:44:15;3.70;;;1.38;;
13672;SDS011;6909;52.202;9.876;2022-08-24T00:46:45;2.35;;;1.20;;
13672;SDS011;6909;52.202;9.876;2022-08-24T00:49:19;2.13;;;1.50;;
13672;SDS011;6909;52.202;9.876;2022-08-24T00:51:52;1.58;;;1.48;;
13672;SDS011;6909;52.202;9.876;2022-08-24T00:54:24;2.72;;;1.70;;
13672;SDS011;6909;52.202;9.876;2022-08-24T00:56:55;3.35;;;1.25;;
13672;SDS011;6909;52.202;9.876;2022-08-24T00:59:28;3.10;;;1.45;;
13672;SDS011;6909;52.202;9.876;2022-08-24T01:02:01;2.80;;;1.50;;
13672;SDS011;6909;52.202;9.876;2022-08-24T01:04:33;3.73;;;1.50;;
13672;SDS011;6909;52.202;9.876;2022-08-24T01:07:06;3.70;;;1.90;;
13672;SDS011;6909;52.202;9.876;2022-08-24T01:09:32;3.13;;;1.60;;
13672;SDS011;6909;52.202;9.876;2022-08-24T01:11:59;1.60;;;1.50;;
13672;SDS011;6909;52.202;9.876;2022-08-24T01:14:26;1.67;;;1.50;;
13672;SDS011;6909;52.202;9.876;2022-08-24T01:16:53;2.10;;;1.30;;
13672;SDS011;6909;52.202;9.876;2022-08-24T01:19:41;2.83;;;1.50;;
13672;SDS011;6909;52.202;9.876;2022-08-24T01:22:14;2.00;;;1.30;;
13672;SDS011;6909;52.202;9.876;2022-08-24T01:24:48;2.13;;;1.40;;
13672;SDS011;6909;52.202;9.876;2022-08-24T01:27:15;1.67;;;1.30;;
13672;SDS011;6909;52.202;9.876;2022-08-24T01:29:42;1.80;;;1.47;;
13672;SDS011;6909;52.202;9.876;2022-08-24T01:32:10;2.83;;;1.40;;
13672;SDS011;6909;52.202;9.876;2022-08-24T01:34:37;2.67;;;1.60;;
13672;SDS011;6909;52.202;9.876;2022-08-24T01:37:04;2.07;;;1.50;;
13672;SDS011;6909;52.202;9.876;2022-08-24T01:39:35;4.88;;;1.60;;
13672;SDS011;6909;52.202;9.876;2022-08-24T01:42:06;1.97;;;1.40;;
13672;SDS011;6909;52.202;9.876;2022-08-24T01:44:34;5.33;;;1.70;;
13672;SDS011;6909;52.202;9.876;2022-08-24T01:47:03;3.50;;;1.37;;
13672;SDS011;6909;52.202;9.876;2022-08-24T01:49:32;2.90;;;1.50;;
13672;SDS011;6909;52.202;9.876;2022-08-24T01:52:01;1.80;;;1.50;;
13672;SDS011;6909;52.202;9.876;2022-08-24T01:54:30;2.53;;;1.90;;
13672;SDS011;6909;52.202;9.876;2022-08-24T01:56:57;1.97;;;1.80;;
13672;SDS011;6909;52.202;9.876;2022-08-24T01:59:26;2.30;;;1.50;;
13672;SDS011;6909;52.202;9.876;2022-08-24T02:01:54;2.87;;;1.67;;
13672;SDS011;6909;52.202;9.876;2022-08-24T02:04:23;2.53;;;1.80;;
13672;SDS011;6909;52.202;9.876;2022-08-24T02:06:49;2.77;;;1.67;;
13672;SDS011;6909;52.202;9.876;2022-08-24T02:09:17;2.17;;;1.80;;
13672;SDS011;6909;52.202;9.876;2022-08-24T02:11:44;1.93;;;1.63;;
13672;SDS011;6909;52.202;9.876;2022-08-24T02:14:14;2.40;;;2.20;;
13672;SDS011;6909;52.202;9.876;2022-08-24T02:16:44;3.10;;;1.70;;
13672;SDS011;6909;52.202;9.876;2022-08-24T02:19:12;4.13;;;1.70;;
13672;SDS011;6909;52.202;9.876;2022-08-24T02:21:39;2.00;;;1.70;;
13672;SDS011;6909;52.202;9.876;2022-08-24T02:24:06;3.77;;;1.60;;
13672;SDS011;6909;52.202;9.876;2022-08-24T02:26:33;3.83;;;1.60;;
13672;SDS011;6909;52.202;9.876;2022-08-24T02:29:00;1.70;;;1.60;;
13672;SDS011;6909;52.202;9.876;2022-08-24T02:31:26;2.70;;;2.00;;
13672;SDS011;6909;52.202;9.876;2022-08-24T02:33:54;1.80;;;1.50;;
13672;SDS011;6909;52.202;9.876;2022-08-24T02:36:21;4.77;;;1.90;;
13672;SDS011;6909;52.202;9.876;2022-08-24T02:38:48;1.80;;;1.50;;
13672;SDS011;6909;52.202;9.876;2022-08-24T02:41:15;3.53;;;1.27;;
13672;SDS011;6909;52.202;9.876;2022-08-24T02:43:42;1.93;;;1.40;;
13672;SDS011;6909;52.202;9.876;2022-08-24T02:46:15;2.40;;;1.30;;
13672;SDS011;6909;52.202;9.876;2022-08-24T02:48:42;2.27;;;1.60;;
13672;SDS011;6909;52.202;9.876;2022-08-24T02:51:16;3.50;;;1.50;;
13672;SDS011;6909;52.202;9.876;2022-08-24T02:53:43;2.63;;;1.40;;
13672;SDS011;6909;52.202;9.876;2022-08-24T02:56:11;5.13;;;2.00;;
13672;SDS011;6909;52.202;9.876;2022-08-24T02:58:37;2.23;;;1.50;;
13672;SDS011;6909;52.202;9.876;2022-08-24T03:01:04;1.50;;;1.40;;
13672;SDS011;6909;52.202;9.876;2022-08-24T03:03:31;2.63;;;1.43;;
13672;SDS011;6909;52.202;9.876;2022-08-24T03:05:57;2.23;;;1.50;;
13672;SDS011;6909;52.202;9.876;2022-08-24T03:08:25;4.63;;;1.87;;
13672;SDS011;6909;52.202;9.876;2022-08-24T03:10:52;2.83;;;1.80;;
13672;SDS011;6909;52.202;9.876;2022-08-24T03:13:19;2.43;;;1.90;;
13672;SDS011;6909;52.202;9.876;2022-08-24T03:15:45;1.83;;;1.63;;
13672;SDS011;6909;52.202;9.876;2022-08-24T03:18:12;1.70;;;1.60;;
13672;SDS011;6909;52.202;9.876;2022-08-24T03:20:38;2.20;;;1.70;;
13672;SDS011;6909;52.202;9.876;2022-08-24T03:23:05;1.83;;;1.33;;
13672;SDS011;6909;52.202;9.876;2022-08-24T03:25:33;3.00;;;1.80;;
13672;SDS011;6909;52.202;9.876;2022-08-24T03:27:59;2.40;;;1.80;;
13672;SDS011;6909;52.202;9.876;2022-08-24T03:30:27;1.97;;;1.60;;
13672;SDS011;6909;52.202;9.876;2022-08-24T03:32:54;2.07;;;1.70;;
13672;SDS011;6909;52.202;9.876;2022-08-24T03:35:21;1.90;;;1.70;;
13672;SDS011;6909;52.202;9.876;2022-08-24T03:37:47;2.27;;;1.60;;
13672;SDS011;6909;52.202;9.876;2022-08-24T03:40:14;4.70;;;1.70;;
13672;SDS011;6909;52.202;9.876;2022-08-24T03:42:42;2.40;;;1.63;;
13672;SDS011;6909;52.202;9.876;2022-08-24T03:45:09;2.40;;;1.77;;
13672;SDS011;6909;52.202;9.876;2022-08-24T03:47:36;3.90;;;1.80;;
13672;SDS011;6909;52.202;9.876;2022-08-24T03:50:04;2.87;;;1.57;;
13672;SDS011;6909;52.202;9.876;2022-08-24T03:52:32;1.70;;;1.60;;
13672;SDS011;6909;52.202;9.876;2022-08-24T03:54:59;2.10;;;1.70;;
13672;SDS011;6909;52.202;9.876;2022-08-24T03:57:26;1.90;;;1.63;;
13672;SDS011;6909;52.202;9.876;2022-08-24T03:59:54;4.70;;;1.70;;
13672;SDS011;6909;52.202;9.876;2022-08-24T04:02:20;4.40;;;2.00;;
13672;SDS011;6909;52.202;9.876;2022-08-24T04:04:47;2.93;;;1.93;;
13672;SDS011;6909;52.202;9.876;2022-08-24T04:07:13;1.73;;;1.63;;
13672;SDS011;6909;52.202;9.876;2022-08-24T04:09:40;2.93;;;2.00;;
13672;SDS011;6909;52.202;9.876;2022-08-24T04:12:07;1.97;;;1.70;;
13672;SDS011;6909;52.202;9.876;2022-08-24T04:14:34;2.47;;;1.67;;
13672;SDS011;6909;52.202;9.876;2022-08-24T04:17:02;3.37;;;1.93;;
13672;SDS011;6909;52.202;9.876;2022-08-24T04:19:29;2.47;;;1.80;;
13672;SDS011;6909;52.202;9.876;2022-08-24T04:21:56;1.90;;;1.70;;
13672;SDS011;6909;52.202;9.876;2022-08-24T04:24:23;3.07;;;2.17;;
13672;SDS011;6909;52.202;9.876;2022-08-24T04:26:50;3.43;;;1.90;;
13672;SDS011;6909;52.202;9.876;2022-08-24T04:29:17;3.30;;;1.80;;
13672;SDS011;6909;52.202;9.876;2022-08-24T04:31:45;2.73;;;2.07;;
13672;SDS011;6909;52.202;9.876;2022-08-24T04:34:14;3.40;;;1.90;;
13672;SDS011;6909;52.202;9.876;2022-08-24T04:36:42;2.93;;;2.03;;
13672;SDS011;6909;52.202;9.876;2022-08-24T04:39:10;3.43;;;2.40;;
13672;SDS011;6909;52.202;9.876;2022-08-24T04:41:37;4.60;;;1.97;;
13672;SDS011;6909;52.202;9.876;2022-08-24T04:44:04;3.47;;;2.00;;
13672;SDS011;6909;52.202;9.876;2022-08-24T04:46:31;2.40;;;1.87;;
13672;SDS011;6909;52.202;9.876;2022-08-24T04:48:57;2.60;;;1.70;;
13672;SDS011;6909;52.202;9.876;2022-08-24T04:51:25;3.53;;;2.23;;
13672;SDS011;6909;52.202;9.876;2022-08-24T04:53:52;6.77;;;2.40;;
13672;SDS011;6909;52.202;9.876;2022-08-24T04:56:19;3.37;;;2.63;;
13672;SDS011;6909;52.202;9.876;2022-08-24T04:58:48;3.47;;;2.50;;
13672;SDS011;6909;52.202;9.876;2022-08-24T05:01:16;3.63;;;2.50;;
13672;SDS011;6909;52.202;9.876;2022-08-24T05:03:44;3.23;;;2.10;;
13672;SDS011;6909;52.202;9.876;2022-08-24T05:06:12;2.93;;;2.10;;
13672;SDS011;6909;52.202;9.876;2022-08-24T05:08:42;3.00;;;2.20;;
13672;SDS011;6909;52.202;9.876;2022-08-24T05:11:10;2.27;;;2.07;;
13672;SDS011;6909;52.202;9.876;2022-08-24T05:13:38;2.80;;;2.07;;
13672;SDS011;6909;52.202;9.876;2022-08-24T05:16:06;5.77;;;2.17;;
13672;SDS011;6909;52.202;9.876;2022-08-24T05:18:34;2.67;;;2.47;;
13672;SDS011;6909;52.202;9.876;2022-08-24T05:21:02;3.53;;;2.55;;
13672;SDS011;6909;52.202;9.876;2022-08-24T05:23:32;5.00;;;3.13;;
13672;SDS011;6909;52.202;9.876;2022-08-24T05:26:03;3.25;;;2.90;;
13672;SDS011;6909;52.202;9.876;2022-08-24T05:28:31;9.13;;;3.38;;
13672;SDS011;6909;52.202;9.876;2022-08-24T05:31:05;5.32;;;2.80;;
13672;SDS011;6909;52.202;9.876;2022-08-24T05:33:33;4.32;;;2.60;;
13672;SDS011;6909;52.202;9.876;2022-08-24T05:36:00;3.33;;;2.83;;
13672;SDS011;6909;52.202;9.876;2022-08-24T05:38:27;6.90;;;2.97;;
13672;SDS011;6909;52.202;9.876;2022-08-24T05:40:53;4.10;;;2.83;;
13672;SDS011;6909;52.202;9.876;2022-08-24T05:43:21;3.70;;;2.85;;
13672;SDS011;6909;52.202;9.876;2022-08-24T05:45:48;3.33;;;2.70;;
13672;SDS011;6909;52.202;9.876;2022-08-24T05:48:15;2.85;;;2.55;;
13672;SDS011;6909;52.202;9.876;2022-08-24T05:50:41;6.03;;;3.17;;
13672;SDS011;6909;52.202;9.876;2022-08-24T05:53:08;4.20;;;2.67;;
13672;SDS011;6909;52.202;9.876;2022-08-24T05:55:37;5.00;;;2.45;;
13672;SDS011;6909;52.202;9.876;2022-08-24T05:58:04;5.30;;;3.25;;
13672;SDS011;6909;52.202;9.876;2022-08-24T06:00:32;4.03;;;2.65;;
13672;SDS011;6909;52.202;9.876;2022-08-24T06:02:59;4.50;;;2.75;;
13672;SDS011;6909;52.202;9.876;2022-08-24T06:05:26;5.57;;;2.85;;
13672;SDS011;6909;52.202;9.876;2022-08-24T06:07:52;5.88;;;3.00;;
13672;SDS011;6909;52.202;9.876;2022-08-24T06:10:19;6.18;;;3.03;;
13672;SDS011;6909;52.202;9.876;2022-08-24T06:12:46;5.72;;;3.08;;
13672;SDS011;6909;52.202;9.876;2022-08-24T06:15:13;7.28;;;3.42;;
13672;SDS011;6909;52.202;9.876;2022-08-24T06:17:41;6.50;;;2.95;;
13672;SDS011;6909;52.202;9.876;2022-08-24T06:20:08;7.05;;;3.08;;
13672;SDS011;6909;52.202;9.876;2022-08-24T06:22:35;5.55;;;3.25;;
13672;SDS011;6909;52.202;9.876;2022-08-24T06:25:02;4.80;;;2.60;;
13672;SDS011;6909;52.202;9.876;2022-08-24T06:27:47;7.22;;;3.10;;
13672;SDS011;6909;52.202;9.876;2022-08-24T06:30:14;3.78;;;2.67;;
13672;SDS011;6909;52.202;9.876;2022-08-24T06:32:44;3.85;;;2.55;;
13672;SDS011;6909;52.202;9.876;2022-08-24T06:35:11;6.63;;;2.70;;
13672;SDS011;6909;52.202;9.876;2022-08-24T06:37:37;4.57;;;2.72;;
13672;SDS011;6909;52.202;9.876;2022-08-24T06:40:04;5.18;;;3.00;;
13672;SDS011;6909;52.202;9.876;2022-08-24T06:42:31;4.25;;;2.60;;
13672;SDS011;6909;52.202;9.876;2022-08-24T06:44:58;7.88;;;3.00;;
13672;SDS011;6909;52.202;9.876;2022-08-24T06:47:25;6.97;;;3.20;;
13672;SDS011;6909;52.202;9.876;2022-08-24T06:49:53;2.60;;;2.40;;
13672;SDS011;6909;52.202;9.876;2022-08-24T06:52:19;5.32;;;3.00;;
13672;SDS011;6909;52.202;9.876;2022-08-24T06:54:46;7.82;;;2.78;;
13672;SDS011;6909;52.202;9.876;2022-08-24T06:57:13;6.68;;;3.20;;
13672;SDS011;6909;52.202;9.876;2022-08-24T06:59:39;4.60;;;2.45;;
13672;SDS011;6909;52.202;9.876;2022-08-24T07:02:07;5.88;;;3.15;;
13672;SDS011;6909;52.202;9.876;2022-08-24T07:04:34;4.30;;;3.63;;
13672;SDS011;6909;52.202;9.876;2022-08-24T07:07:02;5.72;;;3.08;;
13672;SDS011;6909;52.202;9.876;2022-08-24T07:09:29;4.32;;;3.30;;
13672;SDS011;6909;52.202;9.876;2022-08-24T07:11:57;3.08;;;2.78;;
13672;SDS011;6909;52.202;9.876;2022-08-24T07:14:23;4.70;;;2.40;;
13672;SDS011;6909;52.202;9.876;2022-08-24T07:16:50;3.35;;;2.45;;
13672;SDS011;6909;52.202;9.876;2022-08-24T07:19:20;3.85;;;2.30;;
13672;SDS011;6909;52.202;9.876;2022-08-24T07:21:47;2.78;;;2.47;;
13672;SDS011;6909;52.202;9.876;2022-08-24T07:24:15;3.45;;;3.10;;
13672;SDS011;6909;52.202;9.876;2022-08-24T07:26:42;4.00;;;2.55;;
13672;SDS011;6909;52.202;9.876;2022-08-24T07:29:10;2.90;;;2.60;;
13672;SDS011;6909;52.202;9.876;2022-08-24T07:31:39;4.32;;;2.58;;
13672;SDS011;6909;52.202;9.876;2022-08-24T07:34:09;3.08;;;2.55;;
13672;SDS011;6909;52.202;9.876;2022-08-24T07:36:37;3.75;;;2.60;;
13672;SDS011;6909;52.202;9.876;2022-08-24T07:39:06;3.05;;;2.83;;
13672;SDS011;6909;52.202;9.876;2022-08-24T07:41:37;2.65;;;2.45;;
13672;SDS011;6909;52.202;9.876;2022-08-24T07:44:05;3.40;;;2.60;;
13672;SDS011;6909;52.202;9.876;2022-08-24T07:46:32;2.83;;;2.40;;
13672;SDS011;6909;52.202;9.876;2022-08-24T07:48:59;2.90;;;2.70;;
13672;SDS011;6909;52.202;9.876;2022-08-24T07:51:25;3.58;;;2.60;;
13672;SDS011;6909;52.202;9.876;2022-08-24T07:53:52;3.38;;;3.03;;
13672;SDS011;6909;52.202;9.876;2022-08-24T07:56:19;4.03;;;2.65;;
13672;SDS011;6909;52.202;9.876;2022-08-24T07:58:47;5.03;;;2.30;;
13672;SDS011;6909;52.202;9.876;2022-08-24T08:01:14;3.60;;;2.40;;
13672;SDS011;6909;52.202;9.876;2022-08-24T08:03:41;4.20;;;2.60;;
13672;SDS011;6909;52.202;9.876;2022-08-24T08:06:08;2.53;;;2.30;;
13672;SDS011;6909;52.202;9.876;2022-08-24T08:08:35;2.97;;;2.70;;
13672;SDS011;6909;52.202;9.876;2022-08-24T08:11:04;3.60;;;2.53;;
13672;SDS011;6909;52.202;9.876;2022-08-24T08:13:32;2.47;;;2.25;;
13672;SDS011;6909;52.202;9.876;2022-08-24T08:16:00;2.90;;;2.70;;
13672;SDS011;6909;52.202;9.876;2022-08-24T08:18:28;2.10;;;2.00;;
13672;SDS011;6909;52.202;9.876;2022-08-24T08:20:55;2.85;;;2.50;;
13672;SDS011;6909;52.202;9.876;2022-08-24T08:23:22;3.67;;;2.67;;
13672;SDS011;6909;52.202;9.876;2022-08-24T08:26:06;2.60;;;2.35;;
13672;SDS011;6909;52.202;9.876;2022-08-24T08:28:40;2.97;;;2.55;;
13672;SDS011;6909;52.202;9.876;2022-08-24T08:31:08;3.42;;;3.00;;
13672;SDS011;6909;52.202;9.876;2022-08-24T08:33:34;2.67;;;2.47;;
13672;SDS011;6909;52.202;9.876;2022-08-24T08:36:03;3.15;;;2.20;;
13672;SDS011;6909;52.202;9.876;2022-08-24T08:38:31;2.60;;;2.40;;
13672;SDS011;6909;52.202;9.876;2022-08-24T08:41:02;2.60;;;2.40;;
13672;SDS011;6909;52.202;9.876;2022-08-24T08:43:43;2.70;;;2.50;;
13672;SDS011;6909;52.202;9.876;2022-08-24T08:46:23;3.33;;;2.40;;
13672;SDS011;6909;52.202;9.876;2022-08-24T08:49:18;3.30;;;2.40;;
13672;SDS011;6909;52.202;9.876;2022-08-24T08:54:56;3.03;;;2.35;;
13672;SDS011;6909;52.202;9.876;2022-08-24T08:57:45;3.60;;;2.35;;
13672;SDS011;6909;52.202;9.876;2022-08-24T09:00:21;2.97;;;2.00;;
13672;SDS011;6909;52.202;9.876;2022-08-24T09:02:55;4.07;;;2.28;;
13672;SDS011;6909;52.202;9.876;2022-08-24T09:05:47;2.75;;;1.73;;
13672;SDS011;6909;52.202;9.876;2022-08-24T09:08:26;3.45;;;2.08;;
13672;SDS011;6909;52.202;9.876;2022-08-24T09:11:01;2.50;;;1.90;;
13672;SDS011;6909;52.202;9.876;2022-08-24T09:13:36;3.42;;;1.80;;
13672;SDS011;6909;52.202;9.876;2022-08-24T09:16:20;2.60;;;1.88;;
13672;SDS011;6909;52.202;9.876;2022-08-24T09:19:02;3.40;;;1.80;;
13672;SDS011;6909;52.202;9.876;2022-08-24T09:21:44;2.53;;;1.80;;
13672;SDS011;6909;52.202;9.876;2022-08-24T09:24:29;1.88;;;1.48;;
13672;SDS011;6909;52.202;9.876;2022-08-24T09:27:18;2.20;;;1.73;;
13672;SDS011;6909;52.202;9.876;2022-08-24T09:30:03;1.73;;;1.60;;
13672;SDS011;6909;52.202;9.876;2022-08-24T09:32:36;3.70;;;2.17;;
13672;SDS011;6909;52.202;9.876;2022-08-24T09:35:19;2.58;;;1.98;;
13672;SDS011;6909;52.202;9.876;2022-08-24T09:37:55;2.00;;;1.80;;
13672;SDS011;6909;52.202;9.876;2022-08-24T09:40:32;1.90;;;1.63;;
13672;SDS011;6909;52.202;9.876;2022-08-24T09:43:17;2.05;;;1.85;;
13672;SDS011;6909;52.202;9.876;2022-08-24T09:46:08;2.53;;;1.85;;
13672;SDS011;6909;52.202;9.876;2022-08-24T09:51:58;3.10;;;1.83;;
13672;SDS011;6909;52.202;9.876;2022-08-24T09:54:56;1.63;;;1.52;;
13672;SDS011;6909;52.202;9.876;2022-08-24T09:57:37;2.28;;;1.80;;
13672;SDS011;6909;52.202;9.876;2022-08-24T10:00:19;4.13;;;1.75;;
13672;SDS011;6909;52.202;9.876;2022-08-24T10:02:57;1.95;;;1.80;;
13672;SDS011;6909;52.202;9.876;2022-08-24T10:05:50;3.60;;;2.00;;
13672;SDS011;6909;52.202;9.876;2022-08-24T10:08:50;2.08;;;1.88;;
13672;SDS011;6909;52.202;9.876;2022-08-24T10:11:24;2.63;;;1.80;;
13672;SDS011;6909;52.202;9.876;2022-08-24T10:14:01;2.40;;;2.13;;
13672;SDS011;6909;52.202;9.876;2022-08-24T10:16:37;1.65;;;1.55;;
13672;SDS011;6909;52.202;9.876;2022-08-24T10:19:14;3.10;;;1.75;;
13672;SDS011;6909;52.202;9.876;2022-08-24T10:21:55;1.95;;;1.70;;
13672;SDS011;6909;52.202;9.876;2022-08-24T10:24:33;1.88;;;1.58;;
13672;SDS011;6909;52.202;9.876;2022-08-24T10:30:15;2.03;;;1.52;;
13672;SDS011;6909;52.202;9.876;2022-08-24T10:33:02;2.00;;;1.80;;
13672;SDS011;6909;52.202;9.876;2022-08-24T10:35:36;2.08;;;1.85;;
13672;SDS011;6909;52.202;9.876;2022-08-24T10:38:23;2.42;;;1.80;;
13672;SDS011;6909;52.202;9.876;2022-08-24T10:41:20;3.55;;;2.00;;
13672;SDS011;6909;52.202;9.876;2022-08-24T10:44:12;2.08;;;1.65;;
13672;SDS011;6909;52.202;9.876;2022-08-24T10:46:54;2.13;;;1.92;;
13672;SDS011;6909;52.202;9.876;2022-08-24T10:49:45;2.10;;;1.83;;
13672;SDS011;6909;52.202;9.876;2022-08-24T10:52:45;1.70;;;1.40;;
13672;SDS011;6909;52.202;9.876;2022-08-24T10:55:21;2.75;;;1.50;;
13672;SDS011;6909;52.202;9.876;2022-08-24T10:58:05;2.63;;;1.73;;
13672;SDS011;6909;52.202;9.876;2022-08-24T11:00:52;1.98;;;1.60;;
13672;SDS011;6909;52.202;9.876;2022-08-24T11:03:20;1.58;;;1.48;;
13672;SDS011;6909;52.202;9.876;2022-08-24T11:05:51;2.80;;;1.70;;
13672;SDS011;6909;52.202;9.876;2022-08-24T11:08:20;1.90;;;1.70;;
13672;SDS011;6909;52.202;9.876;2022-08-24T11:13:48;1.88;;;1.70;;
13672;SDS011;6909;52.202;9.876;2022-08-24T11:16:21;2.45;;;1.40;;
13672;SDS011;6909;52.202;9.876;2022-08-24T11:18:51;2.85;;;1.75;;
13672;SDS011;6909;52.202;9.876;2022-08-24T11:21:20;3.50;;;1.50;;
13672;SDS011;6909;52.202;9.876;2022-08-24T11:24:02;1.42;;;1.33;;
13672;SDS011;6909;52.202;9.876;2022-08-24T11:26:30;1.70;;;1.60;;
13672;SDS011;6909;52.202;9.876;2022-08-24T11:29:14;2.55;;;1.50;;
13672;SDS011;6909;52.202;9.876;2022-08-24T11:31:41;1.83;;;1.40;;
13672;SDS011;6909;52.202;9.876;2022-08-24T11:34:12;2.55;;;1.30;;
13672;SDS011;6909;52.202;9.876;2022-08-24T11:36:41;2.67;;;1.73;;
13672;SDS011;6909;52.202;9.876;2022-08-24T11:39:09;1.45;;;1.35;;
13672;SDS011;6909;52.202;9.876;2022-08-24T11:41:40;3.45;;;1.38;;
13672;SDS011;6909;52.202;9.876;2022-08-24T11:44:20;1.95;;;1.65;;
13672;SDS011;6909;52.202;9.876;2022-08-24T11:46:59;2.08;;;1.50;;
13672;SDS011;6909;52.202;9.876;2022-08-24T11:49:33;2.92;;;1.63;;
13672;SDS011;6909;52.202;9.876;2022-08-24T11:52:10;2.40;;;1.95;;
13672;SDS011;6909;52.202;9.876;2022-08-24T11:54:45;2.67;;;1.67;;
13672;SDS011;6909;52.202;9.876;2022-08-24T11:57:19;2.85;;;1.73;;
13672;SDS011;6909;52.202;9.876;2022-08-24T11:59:54;2.22;;;1.55;;
13672;SDS011;6909;52.202;9.876;2022-08-24T12:02:26;2.05;;;1.85;;
13672;SDS011;6909;52.202;9.876;2022-08-24T12:04:59;2.72;;;1.83;;
13672;SDS011;6909;52.202;9.876;2022-08-24T12:07:38;1.80;;;1.52;;
13672;SDS011;6909;52.202;9.876;2022-08-24T12:10:17;1.58;;;1.48;;
13672;SDS011;6909;52.202;9.876;2022-08-24T12:12:52;2.13;;;1.83;;
13672;SDS011;6909;52.202;9.876;2022-08-24T12:15:33;2.80;;;1.85;;
13672;SDS011;6909;52.202;9.876;2022-08-24T12:18:08;2.67;;;2.05;;
13672;SDS011;6909;52.202;9.876;2022-08-24T12:20:44;2.42;;;1.88;;
13672;SDS011;6909;52.202;9.876;2022-08-24T12:23:14;2.20;;;1.70;;
13672;SDS011;6909;52.202;9.876;2022-08-24T12:25:50;2.42;;;1.70;;
13672;SDS011;6909;52.202;9.876;2022-08-24T12:28:29;2.67;;;1.75;;
13672;SDS011;6909;52.202;9.876;2022-08-24T12:31:05;2.58;;;1.88;;
13672;SDS011;6909;52.202;9.876;2022-08-24T12:33:36;3.15;;;1.52;;
13672;SDS011;6909;52.202;9.876;2022-08-24T12:36:12;1.98;;;1.73;;
13672;SDS011;6909;52.202;9.876;2022-08-24T12:38:47;2.38;;;1.70;;
13672;SDS011;6909;52.202;9.876;2022-08-24T12:41:25;2.15;;;1.60;;
13672;SDS011;6909;52.202;9.876;2022-08-24T12:43:57;2.85;;;1.80;;
13672;SDS011;6909;52.202;9.876;2022-08-24T12:46:28;1.95;;;1.75;;
13672;SDS011;6909;52.202;9.876;2022-08-24T12:48:56;3.17;;;1.88;;
13672;SDS011;6909;52.202;9.876;2022-08-24T12:51:28;2.20;;;2.00;;
13672;SDS011;6909;52.202;9.876;2022-08-24T12:54:10;4.70;;;2.20;;
13672;SDS011;6909;52.202;9.876;2022-08-24T12:59:42;1.67;;;1.58;;
13672;SDS011;6909;52.202;9.876;2022-08-24T13:02:26;2.95;;;2.05;;
13672;SDS011;6909;52.202;9.876;2022-08-24T13:04:58;3.15;;;2.20;;
13672;SDS011;6909;52.202;9.876;2022-08-24T13:07:37;3.03;;;2.10;;
13672;SDS011;6909;52.202;9.876;2022-08-24T13:10:10;2.33;;;2.08;;
13672;SDS011;6909;52.202;9.876;2022-08-24T13:12:50;2.97;;;2.20;;
13672;SDS011;6909;52.202;9.876;2022-08-24T13:33:43;4.28;;;2.42;;
13672;SDS011;6909;52.202;9.876;2022-08-24T13:42:41;5.63;;;1.95;;
13672;SDS011;6909;52.202;9.876;2022-08-24T13:45:20;5.10;;;2.35;;
13672;SDS011;6909;52.202;9.876;2022-08-24T13:47:54;2.90;;;2.35;;
13672;SDS011;6909;52.202;9.876;2022-08-24T13:50:29;1.77;;;1.67;;
13672;SDS011;6909;52.202;9.876;2022-08-24T13:53:12;2.40;;;2.00;;
13672;SDS011;6909;52.202;9.876;2022-08-24T13:56:09;3.58;;;2.15;;
13672;SDS011;6909;52.202;9.876;2022-08-24T13:58:45;3.40;;;2.08;;
13672;SDS011;6909;52.202;9.876;2022-08-24T14:01:22;3.15;;;1.80;;
13672;SDS011;6909;52.202;9.876;2022-08-24T14:04:07;2.58;;;2.13;;
13672;SDS011;6909;52.202;9.876;2022-08-24T14:06:48;2.22;;;1.98;;
13672;SDS011;6909;52.202;9.876;2022-08-24T14:09:24;2.13;;;1.92;;
13672;SDS011;6909;52.202;9.876;2022-08-24T14:12:03;2.17;;;1.98;;
13672;SDS011;6909;52.202;9.876;2022-08-24T14:14:56;2.40;;;1.90;;
13672;SDS011;6909;52.202;9.876;2022-08-24T14:17:34;1.67;;;1.58;;
13672;SDS011;6909;52.202;9.876;2022-08-24T14:20:23;3.55;;;1.90;;
13672;SDS011;6909;52.202;9.876;2022-08-24T14:23:20;4.68;;;2.10;;
13672;SDS011;6909;52.202;9.876;2022-08-24T14:28:55;3.92;;;1.77;;
13672;SDS011;6909;52.202;9.876;2022-08-24T14:34:52;2.08;;;1.88;;
13672;SDS011;6909;52.202;9.876;2022-08-24T14:37:29;2.05;;;1.75;;
13672;SDS011;6909;52.202;9.876;2022-08-24T14:40:09;2.47;;;1.63;;
13672;SDS011;6909;52.202;9.876;2022-08-24T14:42:46;2.70;;;2.20;;
13672;SDS011;6909;52.202;9.876;2022-08-24T14:45:22;2.10;;;1.90;;
13672;SDS011;6909;52.202;9.876;2022-08-24T14:48:02;2.28;;;2.10;;
13672;SDS011;6909;52.202;9.876;2022-08-24T14:50:36;1.73;;;1.63;;
13672;SDS011;6909;52.202;9.876;2022-08-24T14:53:16;2.05;;;1.80;;
13672;SDS011;6909;52.202;9.876;2022-08-24T14:55:58;3.10;;;2.10;;
13672;SDS011;6909;52.202;9.876;2022-08-24T14:58:37;2.05;;;1.95;;
13672;SDS011;6909;52.202;9.876;2022-08-24T15:01:23;2.55;;;2.10;;
13672;SDS011;6909;52.202;9.876;2022-08-24T15:04:11;3.88;;;1.80;;
13672;SDS011;6909;52.202;9.876;2022-08-24T15:09:50;4.80;;;2.35;;
13672;SDS011;6909;52.202;9.876;2022-08-24T15:12:21;3.28;;;2.30;;
13672;SDS011;6909;52.202;9.876;2022-08-24T15:14:57;2.47;;;2.28;;
13672;SDS011;6909;52.202;9.876;2022-08-24T15:17:40;2.15;;;2.00;;
13672;SDS011;6909;52.202;9.876;2022-08-24T15:20:14;5.10;;;2.15;;
13672;SDS011;6909;52.202;9.876;2022-08-24T15:22:44;3.40;;;1.80;;
13672;SDS011;6909;52.202;9.876;2022-08-24T15:25:15;2.65;;;2.30;;
13672;SDS011;6909;52.202;9.876;2022-08-24T15:27:52;2.15;;;1.95;;
13672;SDS011;6909;52.202;9.876;2022-08-24T15:30:22;2.38;;;2.17;;
13672;SDS011;6909;52.202;9.876;2022-08-24T15:32:53;2.40;;;2.03;;
13672;SDS011;6909;52.202;9.876;2022-08-24T15:35:29;2.40;;;2.00;;
13672;SDS011;6909;52.202;9.876;2022-08-24T15:38:11;3.40;;;1.95;;
13672;SDS011;6909;52.202;9.876;2022-08-24T15:40:41;2.30;;;2.10;;
13672;SDS011;6909;52.202;9.876;2022-08-24T15:43:08;2.72;;;2.13;;
13672;SDS011;6909;52.202;9.876;2022-08-24T15:45:37;2.88;;;1.70;;
13672;SDS011;6909;52.202;9.876;2022-08-24T15:48:12;2.25;;;1.95;;
13672;SDS011;6909;52.202;9.876;2022-08-24T15:50:41;5.07;;;2.13;;
13672;SDS011;6909;52.202;9.876;2022-08-24T15:53:24;2.17;;;1.90;;
13672;SDS011;6909;52.202;9.876;2022-08-24T15:55:54;2.45;;;1.88;;
13672;SDS011;6909;52.202;9.876;2022-08-24T15:58:31;1.98;;;1.88;;
13672;SDS011;6909;52.202;9.876;2022-08-24T16:04:05;2.20;;;2.00;;
13672;SDS011;6909;52.202;9.876;2022-08-24T16:06:36;2.78;;;2.00;;
13672;SDS011;6909;52.202;9.876;2022-08-24T16:09:06;4.03;;;1.95;;
13672;SDS011;6909;52.202;9.876;2022-08-24T16:11:38;2.22;;;1.98;;
13672;SDS011;6909;52.202;9.876;2022-08-24T16:14:10;2.03;;;1.88;;
13672;SDS011;6909;52.202;9.876;2022-08-24T16:16:40;2.00;;;1.45;;
13672;SDS011;6909;52.202;9.876;2022-08-24T16:19:17;2.88;;;1.90;;
13672;SDS011;6909;52.202;9.876;2022-08-24T16:21:52;3.10;;;1.83;;